Govans, Maryland
Current Conditions -  °F | °C
As of 6:45 AM on Wednesday 26 Nov 2014 (Local Time) from KMTN Reporting Station
Moderate Rain Moderate Rain  
Wind Chill: 43°   Ceiling: 1400
Heat Index: 43°   Visibility: 7mi
Dew Point: 43°   Wind: 0mph
Humidity: 100%   Direction: NA
Pressure: 30.1"   Gusts: NA
Location:  39.3674°N, 76.6149°W
Report Text: KMTN 261145Z 00000KT 7SM RA OVC014 06/06 A3010
Loading
Personal Weather Stations






























Interactive Weather Map New forecast layout! Learn more

10-Day Weather Forecast

Advertisements
Track Severe Weather on mobile